Peotone Weather
Peotone-Weather Station Historical Data
 
Daily Summary for July 08, 2020 Units:  English    Metric   Both
Daily Weekly Monthly Yearly Custom
  Current: High: Low: Average:
Temperature: 75.4 °F 93.1 °F 68.3 °F 79.1 °F
Dew Point: 69.1 °F 75.8 °F 65.8 °F 69.9 °F
Humidity: 80.8% 95% 51.3% 75%
Wind Speed: 1.4mph 16.9mph 0mph 2.1mph
Wind Gust: 3.4mph 26.4mph - -
WindSSW - - SE
Pressure: 29.88 in 29.95 in 29.83 in -
Precipitation: 0.00 in      
Historical Graphs
 
 
Tabular Data for July 08, 2020
Time Temperature Dew Point Pressure Wind Wind Speed Wind Gust Humidity Rainfall Rate (Hourly) solar
00:04 73.3 °F 66.6 °F 29.95 in ENE 2.9 mph 10.3 mph 79.7% 0.00 in 0 W/m2
00:09 73.1 °F 66.6 °F 29.94 in ENE 1.7 mph 5.8 mph 80% 0.00 in 0 W/m2
00:14 72.9 °F 66.8 °F 29.94 in ENE 1.1 mph 5.8 mph 81% 0.00 in 0 W/m2
00:19 72.7 °F 66.9 °F 29.94 in ENE 0.8 mph 4.6 mph 82% 0.00 in 0 W/m2
00:24 72.4 °F 66.8 °F 29.93 in East 2.3 mph 5.8 mph 82.6% 0.00 in 0 W/m2
00:29 72.3 °F 66.9 °F 29.93 in East 1.5 mph 5.8 mph 83.3% 0.00 in 0 W/m2
00:34 71.9 °F 66.8 °F 29.93 in ENE 2 mph 5.8 mph 84% 0.00 in 0 W/m2
00:39 71.8 °F 66.7 °F 29.93 in East 1 mph 5.8 mph 84.1% 0.00 in 0 W/m2
00:44 71.7 °F 66.9 °F 29.93 in ESE 1.8 mph 3.4 mph 84.8% 0.00 in 0 W/m2
00:49 71.5 °F 66.7 °F 29.93 in East 1.4 mph 4.6 mph 85% 0.00 in 0 W/m2
00:54 71.3 °F 66.9 °F 29.92 in ENE 0.8 mph 4.6 mph 86% 0.00 in 0 W/m2
00:59 71.2 °F 66.8 °F 29.92 in East 1.2 mph 3.4 mph 86% 0.00 in 0 W/m2
01:04 71.2 °F 66.8 °F 29.92 in East 1.9 mph 3.4 mph 86% 0.00 in 0 W/m2
01:09 71.1 °F 66.7 °F 29.92 in ESE 2.2 mph 3.4 mph 86% 0.00 in 0 W/m2
01:14 71 °F 66.6 °F 29.92 in ESE 2.3 mph 5.8 mph 86% 0.00 in 0 W/m2
01:19 71 °F 66.6 °F 29.92 in ESE 2.3 mph 5.8 mph 86% 0.00 in 0 W/m2
01:24 70.7 °F 66.7 °F 29.91 in SE 1.8 mph 4.6 mph 87% 0.00 in 0 W/m2
01:29 70.6 °F 66.6 °F 29.91 in ESE 1.9 mph 4.6 mph 87.1% 0.00 in 0 W/m2
01:34 70.6 °F 66.6 °F 29.91 in ESE 0.4 mph 4.6 mph 87.2% 0.00 in 0 W/m2
01:39 70.4 °F 66.7 °F 29.91 in ESE 0.9 mph 2.3 mph 88% 0.00 in 0 W/m2
01:44 70.5 °F 66.8 °F 29.91 in East 1.2 mph 4.6 mph 88% 0.00 in 0 W/m2
01:49 70.5 °F 66.8 °F 29.90 in ESE 2.2 mph 4.6 mph 88% 0.00 in 0 W/m2
01:54 70.4 °F 66.8 °F 29.90 in ESE 1.8 mph 4.6 mph 88.3% 0.00 in 0 W/m2
01:59 70.3 °F 66.9 °F 29.91 in ESE 0.7 mph 3.4 mph 89% 0.00 in 0 W/m2
02:04 70.2 °F 66.8 °F 29.90 in East 0.2 mph 2.3 mph 89% 0.00 in 0 W/m2
02:09 70 °F 66.8 °F 29.90 in Calm   1.1 mph 89.8% 0.00 in 0 W/m2
02:14 69.9 °F 66.8 °F 29.90 in East 0.5 mph 2.3 mph 90% 0.00 in 0 W/m2
02:19 69.6 °F 66.7 °F 29.91 in SE 0.2 mph 2.3 mph 90.4% 0.00 in 0 W/m2
02:24 69.6 °F 66.8 °F 29.90 in SE 0.2 mph 1.1 mph 91% 0.00 in 0 W/m2
02:29 69.6 °F 66.9 °F 29.90 in Calm   1.1 mph 91% 0.00 in 0 W/m2
02:34 69.6 °F 66.9 °F 29.90 in Calm   1.1 mph 91% 0.00 in 0 W/m2
02:39 69.4 °F 66.9 °F 29.91 in ESE 0.8 mph 4.6 mph 91.7% 0.00 in 0 W/m2
02:44 69.6 °F 67 °F 29.91 in SE 1 mph 4.6 mph 91.4% 0.00 in 0 W/m2
02:49 69.7 °F 67 °F 29.90 in SE 0.1 mph 2.3 mph 91% 0.00 in 0 W/m2
02:54 69.8 °F 67 °F 29.90 in Calm   2.3 mph 91% 0.00 in 0 W/m2
02:59 69.7 °F 67 °F 29.90 in SE 0.3 mph 2.3 mph 91% 0.00 in 0 W/m2
03:04 69.7 °F 67 °F 29.90 in SE 0.3 mph 2.3 mph 91% 0.00 in 0 W/m2
03:09 69.8 °F 67.1 °F 29.91 in SE 1.6 mph 4.6 mph 91.1% 0.00 in 0 W/m2
03:14 69.9 °F 67.2 °F 29.91 in SE 3.7 mph 5.8 mph 91.1% 0.00 in 0 W/m2
03:19 70 °F 67.2 °F 29.90 in SSE 2.4 mph 5.8 mph 91% 0.00 in 0 W/m2
03:24 69.9 °F 67.1 °F 29.90 in SSE 1.1 mph 4.6 mph 91% 0.00 in 0 W/m2
03:29 69.8 °F 67 °F 29.90 in SE 1.6 mph 3.4 mph 91% 0.00 in 0 W/m2
03:34 69.7 °F 67 °F 29.91 in SE 1 mph 3.4 mph 91% 0.00 in 0 W/m2
03:39 69.7 °F 66.9 °F 29.91 in SE 1.9 mph 4.6 mph 91% 0.00 in 0 W/m2
03:44 69.6 °F 66.9 °F 29.90 in ESE 1.3 mph 4.6 mph 91% 0.00 in 0 W/m2
03:49 69.7 °F 66.9 °F 29.90 in SE 1.9 mph 4.6 mph 91% 0.00 in 0 W/m2
03:54 69.7 °F 66.9 °F 29.91 in SE 1.8 mph 4.6 mph 91% 0.00 in 0 W/m2
03:59 69.6 °F 66.9 °F 29.91 in SE 1.1 mph 3.4 mph 91% 0.00 in 0 W/m2
04:04 69.7 °F 66.9 °F 29.91 in Calm   3.4 mph 91% 0.00 in 0 W/m2
04:09 69.6 °F 66.9 °F 29.91 in NE 1 mph 3.4 mph 91% 0.00 in 0 W/m2
04:14 69.4 °F 66.8 °F 29.91 in North 2.8 mph 4.6 mph 91.5% 0.00 in 0 W/m2
04:19 69.3 °F 66.9 °F 29.91 in North 0.7 mph 4.6 mph 92% 0.00 in 0 W/m2
04:24 69.2 °F 66.8 °F 29.91 in Calm   2.3 mph 92% 0.00 in 0 W/m2
04:29 69 °F 66.7 °F 29.91 in NNE 0.4 mph 2.3 mph 92.2% 0.00 in 0 W/m2
04:34 69 °F 66.9 °F 29.91 in NNE 0.4 mph 2.3 mph 93% 0.00 in 0 W/m2
04:39 68.8 °F 66.7 °F 29.91 in Calm   2.3 mph 93% 0.00 in 0 W/m2
04:44 68.6 °F 66.5 °F 29.91 in Calm   1.1 mph 93% 0.00 in 0 W/m2
04:49 68.7 °F 66.8 °F 29.91 in Calm   1.1 mph 93.8% 0.00 in 0 W/m2
04:54 68.8 °F 66.8 °F 29.91 in NNE 0.4 mph 2.3 mph 93.5% 0.00 in 0 W/m2
04:59 68.8 °F 66.7 °F 29.91 in Calm   2.3 mph 93% 0.00 in 0 W/m2
05:04 68.7 °F 66.6 °F 29.91 in Calm     93% 0.00 in 0 W/m2
05:09 68.6 °F 66.5 °F 29.91 in NNE 0.8 mph 2.3 mph 93.2% 0.00 in 0 W/m2
05:14 68.6 °F 66.7 °F 29.92 in NNE 0.1 mph 2.3 mph 93.8% 0.00 in 0 W/m2
05:19 68.5 °F 66.7 °F 29.92 in NNE 1 mph 3.4 mph 94% 0.00 in 0 W/m2
05:24 68.6 °F 66.8 °F 29.92 in North 0.5 mph 3.4 mph 94% 0.00 in 0 W/m2
05:29 68.6 °F 66.8 °F 29.92 in North 1 mph 3.4 mph 94% 0.00 in 0 W/m2
05:34 68.5 °F 66.7 °F 29.92 in Calm   3.4 mph 94% 0.00 in 5 W/m2
05:39 68.5 °F 66.7 °F 29.92 in Calm     94% 0.00 in 7 W/m2
05:44 68.4 °F 66.7 °F 29.92 in Calm     94.2% 0.00 in 11 W/m2
05:49 68.3 °F 66.8 °F 29.92 in Calm     95% 0.00 in 14 W/m2
05:54 68.4 °F 66.9 °F 29.92 in Calm     95% 0.00 in 18 W/m2
05:59 68.5 °F 66.9 °F 29.92 in Calm   1.1 mph 94.8% 0.00 in 19 W/m2
06:04 68.6 °F 67.1 °F 29.92 in North 0.1 mph 2.3 mph 95% 0.00 in 23 W/m2
06:09 68.9 °F 67.3 °F 29.92 in North 0.7 mph 2.3 mph 94.7% 0.00 in 28 W/m2
06:14 69.2 °F 67.4 °F 29.93 in North 0.1 mph 2.3 mph 94% 0.00 in 32 W/m2
06:19 69.4 °F 67.6 °F 29.93 in NNW 1.4 mph 5.8 mph 94% 0.00 in 39 W/m2
06:24 69.7 °F 67.6 °F 29.93 in Calm   5.8 mph 93.1% 0.00 in 56 W/m2
06:29 69.9 °F 67.8 °F 29.93 in Calm   1.1 mph 93% 0.00 in 62 W/m2
06:34 70.2 °F 68.1 °F 29.93 in North 0.6 mph 2.3 mph 93% 0.00 in 95 W/m2
06:39 70.8 °F 68.3 °F 29.93 in North 0.8 mph 2.3 mph 91.9% 0.00 in 74 W/m2
06:44 71.3 °F 68.6 °F 29.93 in NNE 0.1 mph 2.3 mph 91% 0.00 in 104 W/m2
06:49 71.7 °F 68.7 °F 29.93 in NNE 0.6 mph 2.3 mph 90.3% 0.00 in 130 W/m2
06:54 72.1 °F 69 °F 29.93 in South 1.5 mph 4.6 mph 89.8% 0.00 in 149 W/m2
06:59 72.5 °F 69.1 °F 29.93 in SSE 0.6 mph 4.6 mph 89.1% 0.00 in 163 W/m2
07:04 72.7 °F 69.3 °F 29.94 in SSE 0.2 mph 2.3 mph 89% 0.00 in 174 W/m2
07:09 72.9 °F 69.5 °F 29.94 in NE 0.4 mph 2.3 mph 89% 0.00 in 192 W/m2
07:14 73.1 °F 69.8 °F 29.94 in North 2.9 mph 5.8 mph 89.3% 0.00 in 193 W/m2
07:19 73 °F 69.6 °F 29.94 in NNW 1.2 mph 5.8 mph 89.2% 0.00 in 216 W/m2
07:24 73.2 °F 69.9 °F 29.94 in NNW 1.2 mph 3.4 mph 89.4% 0.00 in 236 W/m2
07:29 73.3 °F 69.7 °F 29.94 in North 1 mph 3.4 mph 88.6% 0.00 in 214 W/m2
07:34 73.4 °F 69.8 °F 29.94 in NNW 0.7 mph 3.4 mph 88.5% 0.00 in 264 W/m2
07:39 74 °F 70.5 °F 29.95 in North 3.6 mph 6.9 mph 88.9% 0.00 in 290 W/m2
07:44 74.2 °F 70.5 °F 29.95 in North 1.6 mph 6.9 mph 88.1% 0.00 in 264 W/m2
07:49 74.5 °F 70.9 °F 29.95 in NNE 0.3 mph 4.6 mph 88.3% 0.00 in 308 W/m2
07:54 74.8 °F 70.9 °F 29.95 in NNE 0.4 mph 2.3 mph 87.6% 0.00 in 334 W/m2
07:59 75.4 °F 70.9 °F 29.94 in NE 0.1 mph 2.3 mph 85.9% 0.00 in 345 W/m2
08:04 75.8 °F 71.4 °F 29.94 in ENE 0.6 mph 2.3 mph 86.3% 0.00 in 366 W/m2
08:09 76.4 °F 71.5 °F 29.94 in ENE 1.3 mph 2.3 mph 85% 0.00 in 385 W/m2
08:14 76.4 °F 71.4 °F 29.94 in ENE 0.6 mph 2.3 mph 84.6% 0.00 in 394 W/m2
08:19 76.6 °F 71.8 °F 29.94 in SE 0.9 mph 2.3 mph 85.2% 0.00 in 410 W/m2
08:24 76.9 °F 71.8 °F 29.94 in ESE 0.7 mph 2.3 mph 84.2% 0.00 in 425 W/m2
08:29 77 °F 72 °F 29.94 in ESE 0.7 mph 3.4 mph 84.6% 0.00 in 439 W/m2
08:34 77.5 °F 72.4 °F 29.94 in SE 0.7 mph 3.4 mph 84.3% 0.00 in 455 W/m2
08:39 77.9 °F 72.2 °F 29.94 in ESE 0.6 mph 3.4 mph 82.8% 0.00 in 468 W/m2
08:44 78.5 °F 72.6 °F 29.94 in ESE 1 mph 3.4 mph 82.2% 0.00 in 485 W/m2
08:49 78.7 °F 72.5 °F 29.94 in SE 0.2 mph 2.3 mph 81.3% 0.00 in 501 W/m2
08:54 78.9 °F 73.1 °F 29.94 in NNW 0.7 mph 3.4 mph 82.3% 0.00 in 512 W/m2
08:59 79.5 °F 73.2 °F 29.94 in NNE 0.9 mph 3.4 mph 81% 0.00 in 522 W/m2
09:04 79.4 °F 73.3 °F 29.94 in ENE 0.6 mph 3.4 mph 81.5% 0.00 in 541 W/m2
09:09 80 °F 73.3 °F 29.93 in East 0.6 mph 3.4 mph 80.2% 0.00 in 555 W/m2
09:14 80.4 °F 73.3 °F 29.93 in East 0.6 mph 2.3 mph 79.1% 0.00 in 564 W/m2
09:19 80.7 °F 74 °F 29.94 in ESE 1.2 mph 3.4 mph 79.9% 0.00 in 575 W/m2
09:24 81.1 °F 73.7 °F 29.94 in ESE 0.7 mph 3.4 mph 78.2% 0.00 in 591 W/m2
09:29 81.2 °F 73.7 °F 29.93 in ESE 1 mph 3.4 mph 78.1% 0.00 in 605 W/m2
09:34 81.7 °F 74.7 °F 29.93 in SE 1 mph 4.6 mph 79.3% 0.00 in 622 W/m2
09:39 82.4 °F 74.3 °F 29.94 in SE 1 mph 4.6 mph 76.5% 0.00 in 631 W/m2
09:44 82.4 °F 74.3 °F 29.94 in SE 1.1 mph 3.4 mph 76.4% 0.00 in 649 W/m2
09:49 82.3 °F 73.7 °F 29.94 in ENE 1.2 mph 3.4 mph 75.4% 0.00 in 663 W/m2
09:54 82.3 °F 73.6 °F 29.94 in ESE 0.5 mph 3.4 mph 75% 0.00 in 673 W/m2
09:59 82.7 °F 74.2 °F 29.94 in ESE 0.1 mph 2.3 mph 75.6% 0.00 in 686 W/m2
10:04 83 °F 73.9 °F 29.93 in North 0.7 mph 3.4 mph 74% 0.00 in 696 W/m2
10:09 83.7 °F 74.6 °F 29.93 in NNW 1.2 mph 5.8 mph 74.3% 0.00 in 710 W/m2
10:14 84 °F 73.8 °F 29.93 in NNW 1.1 mph 5.8 mph 71.5% 0.00 in 722 W/m2
10:19 84.6 °F 74 °F 29.93 in NW 1.8 mph 5.8 mph 70.6% 0.00 in 733 W/m2
10:24 84.5 °F 74 °F 29.93 in WNW 0.8 mph 5.8 mph 71% 0.00 in 747 W/m2
10:29 85.1 °F 74.4 °F 29.93 in NNW 0.7 mph 3.4 mph 70.5% 0.00 in 758 W/m2
10:34 85.4 °F 74.1 °F 29.93 in NNW 3.1 mph 6.9 mph 69.1% 0.00 in 766 W/m2
10:39 85.6 °F 74.4 °F 29.93 in NW 3.3 mph 6.9 mph 69.4% 0.00 in 775 W/m2
10:44 85.8 °F 73.9 °F 29.93 in NNW 4.7 mph 8.1 mph 67.6% 0.00 in 788 W/m2
10:49 85.5 °F 73.3 °F 29.93 in NW 1.4 mph 8.1 mph 67.1% 0.00 in 795 W/m2
10:54 85.9 °F 73.5 °F 29.93 in North 1.6 mph 5.8 mph 66.7% 0.00 in 800 W/m2
10:59 86 °F 73.9 °F 29.93 in NNE 1.5 mph 5.8 mph 67.4% 0.00 in 814 W/m2
11:04 86.9 °F 74.8 °F 29.93 in ESE 1.8 mph 5.8 mph 67.4% 0.00 in 823 W/m2
11:09 87.3 °F 74.8 °F 29.93 in SE 1.1 mph 5.8 mph 66.7% 0.00 in 831 W/m2
11:14 87.4 °F 75.2 °F 29.93 in East 2.7 mph 8.1 mph 67.2% 0.00 in 840 W/m2
11:19 87.8 °F 75.8 °F 29.92 in ESE 3.1 mph 9.2 mph 67.8% 0.00 in 851 W/m2
11:24 88.1 °F 75.7 °F 29.92 in ESE 3.6 mph 9.2 mph 66.9% 0.00 in 872 W/m2
11:29 88.1 °F 75.2 °F 29.93 in East 1.4 mph 9.2 mph 65.7% 0.00 in 879 W/m2
11:34 88 °F 74.9 °F 29.93 in ENE 0.6 mph 3.4 mph 65.3% 0.00 in 891 W/m2
11:39 88.1 °F 74.8 °F 29.93 in ESE 2.2 mph 4.6 mph 64.8% 0.00 in 911 W/m2
11:44 88.9 °F 74.6 °F 29.93 in ESE 2.1 mph 4.6 mph 62.8% 0.00 in 935 W/m2
11:49 88.8 °F 74.2 °F 29.93 in East 2 mph 8.1 mph 62.1% 0.00 in 951 W/m2
11:54 89 °F 74.1 °F 29.93 in SE 1.5 mph 8.1 mph 61.6% 0.00 in 946 W/m2
11:59 89.4 °F 73.7 °F 29.93 in ENE 3.8 mph 8.1 mph 60% 0.00 in 951 W/m2
12:04 89.9 °F 73.6 °F 29.93 in NE 4.4 mph 9.2 mph 58.9% 0.00 in 954 W/m2
12:09 89.8 °F 73.6 °F 29.93 in East 3.3 mph 9.2 mph 59% 0.00 in 970 W/m2
12:14 90.4 °F 74.7 °F 29.93 in NW 3.5 mph 8.1 mph 60.2% 0.00 in 1005 W/m2
12:19 91 °F 74.9 °F 29.93 in NNE 2 mph 5.8 mph 59.3% 0.00 in 1025 W/m2
12:24 90.7 °F 74.4 °F 29.93 in ENE 2.6 mph 6.9 mph 58.9% 0.00 in 1028 W/m2
12:29 89.3 °F 73.2 °F 29.93 in ESE 1.7 mph 6.9 mph 59.1% 0.00 in 250 W/m2
12:34 88.2 °F 73.5 °F 29.93 in NNW 1.3 mph 4.6 mph 61.9% 0.00 in 320 W/m2
12:39 87.4 °F 72.8 °F 29.93 in NNE 2.6 mph 4.6 mph 62.1% 0.00 in 221 W/m2
12:44 87 °F 73.4 °F 29.93 in North 2 mph 4.6 mph 64.3% 0.00 in 355 W/m2
12:49 88 °F 72.9 °F 29.93 in NW 1 mph 4.6 mph 61.2% 0.00 in 1062 W/m2
12:54 88.1 °F 71.9 °F 29.93 in NNE 1.1 mph 4.6 mph 58.8% 0.00 in 1032 W/m2
12:59 88.7 °F 73.6 °F 29.92 in NE 1.2 mph 4.6 mph 61.2% 0.00 in 1032 W/m2
13:04 90.5 °F 75.4 °F 29.92 in ENE 2.4 mph 5.8 mph 61.5% 0.00 in 1013 W/m2
13:09 91.4 °F 74.1 °F 29.92 in ENE 1.5 mph 5.8 mph 57% 0.00 in 1072 W/m2
13:14 91.1 °F 74.6 °F 29.92 in NE 1.4 mph 5.8 mph 58.7% 0.00 in 1107 W/m2
13:19 91.7 °F 75 °F 29.92 in NNE 2.2 mph 8.1 mph 58.3% 0.00 in 1081 W/m2
13:24 91.3 °F 73.8 °F 29.92 in East 2.3 mph 8.1 mph 56.7% 0.00 in 1035 W/m2
13:29 89.3 °F 73.1 °F 29.92 in NNW 1.7 mph 5.8 mph 59% 0.00 in 202 W/m2
13:34 87.9 °F 72.3 °F 29.91 in North 3.3 mph 8.1 mph 60% 0.00 in 151 W/m2
13:39 87.5 °F 72.9 °F 29.91 in North 2.5 mph 8.1 mph 62% 0.00 in 163 W/m2
13:44 88.4 °F 71.5 °F 29.91 in North 0.9 mph 5.8 mph 57.6% 0.00 in 942 W/m2
13:49 89.9 °F 72.9 °F 29.90 in NW 3.2 mph 5.8 mph 57.5% 0.00 in 942 W/m2
13:54 90.9 °F 73.8 °F 29.90 in NW 2.2 mph 5.8 mph 57.5% 0.00 in 930 W/m2
13:59 92.1 °F 73.7 °F 29.89 in NNE 2.6 mph 6.9 mph 55.2% 0.00 in 930 W/m2
14:04 91.7 °F 73 °F 29.89 in NE 2.7 mph 6.9 mph 54.5% 0.00 in 928 W/m2
14:09 90.7 °F 71.6 °F 29.89 in East 1.2 mph 5.8 mph 53.7% 0.00 in 875 W/m2
14:14 89.8 °F 71.8 °F 29.89 in ESE 0.4 mph 3.4 mph 55.5% 0.00 in 933 W/m2
14:19 91.2 °F 72 °F 29.89 in ESE 2.4 mph 6.9 mph 53.7% 0.00 in 939 W/m2
14:24 92 °F 72.4 °F 29.88 in SSE 2.6 mph 6.9 mph 53% 0.00 in 928 W/m2
14:29 92.1 °F 74 °F 29.88 in SSE 2.9 mph 9.2 mph 55.7% 0.00 in 932 W/m2
14:34 92.8 °F 72.3 °F 29.88 in NNE 2.9 mph 9.2 mph 51.5% 0.00 in 965 W/m2
14:39 92.3 °F 71.7 °F 29.88 in NNE 2.4 mph 8.1 mph 51.3% 0.00 in 988 W/m2
14:44 91.5 °F 71.8 °F 29.88 in ESE 2.5 mph 6.9 mph 52.6% 0.00 in 984 W/m2
14:49 90.7 °F 70.9 °F 29.88 in ESE 2.6 mph 5.8 mph 52.3% 0.00 in 204 W/m2
14:54 89.7 °F 70.7 °F 29.88 in ESE 1.5 mph 5.8 mph 53.6% 0.00 in 244 W/m2
14:59 89.2 °F 71.2 °F 29.88 in ESE 1.5 mph 5.8 mph 55.5% 0.00 in 202 W/m2
15:04 89 °F 70.7 °F 29.87 in SE 1.6 mph 4.6 mph 54.9% 0.00 in 178 W/m2
15:09 88.9 °F 70.3 °F 29.87 in SSW 2.4 mph 4.6 mph 54.2% 0.00 in 195 W/m2
15:14 88.8 °F 71.4 °F 29.86 in SSW 1.1 mph 4.6 mph 56.6% 0.00 in 267 W/m2
15:19 89 °F 71.2 °F 29.86 in South 1.1 mph 3.4 mph 56% 0.00 in 267 W/m2
15:24 90.3 °F 72.3 °F 29.86 in ESE 1.5 mph 5.8 mph 55.8% 0.00 in 851 W/m2
15:29 91.7 °F 72.3 °F 29.86 in SE 2.3 mph 5.8 mph 53.4% 0.00 in 844 W/m2
15:34 91.6 °F 72.2 °F 29.86 in SE 0.4 mph 5.8 mph 53.4% 0.00 in 622 W/m2
15:39 92.1 °F 73.8 °F 29.85 in ESE 3.3 mph 6.9 mph 55.4% 0.00 in 809 W/m2
15:44 92.7 °F 72.9 °F 29.85 in SE 2.8 mph 6.9 mph 52.7% 0.00 in 802 W/m2
15:49 92.3 °F 74.7 °F 29.85 in ESE 2.5 mph 6.9 mph 56.8% 0.00 in 796 W/m2
15:54 92.4 °F 74.6 °F 29.85 in ENE 3.3 mph 11.5 mph 56.3% 0.00 in 770 W/m2
15:59 92.3 °F 74.3 °F 29.85 in NE 5.8 mph 12.6 mph 55.8% 0.00 in 754 W/m2
16:04 92.1 °F 74 °F 29.85 in East 5.5 mph 12.6 mph 55.8% 0.00 in 731 W/m2
16:09 92.3 °F 73.9 °F 29.85 in ESE 3.3 mph 9.2 mph 55.2% 0.00 in 719 W/m2
16:14 92.4 °F 74.3 °F 29.85 in ENE 3.7 mph 9.2 mph 55.9% 0.00 in 728 W/m2
16:19 92.8 °F 74 °F 29.85 in East 3.4 mph 10.3 mph 54.6% 0.00 in 738 W/m2
16:24 93.1 °F 75.1 °F 29.85 in ENE 5.3 mph 10.3 mph 56% 0.00 in 722 W/m2
16:29 92.9 °F 73.9 °F 29.85 in ESE 2.6 mph 8.1 mph 54.1% 0.00 in 703 W/m2
16:34 92.7 °F 73.8 °F 29.85 in ESE 3.9 mph 8.1 mph 54.4% 0.00 in 705 W/m2
16:39 90.8 °F 73.7 °F 29.85 in SE 4.1 mph 6.9 mph 57.5% 0.00 in 244 W/m2
16:44 90.8 °F 74 °F 29.85 in SE 6.3 mph 10.3 mph 58% 0.00 in 679 W/m2
16:49 91.5 °F 73.8 °F 29.85 in SE 1.7 mph 10.3 mph 56.3% 0.00 in 622 W/m2
16:54 90.6 °F 72.9 °F 29.85 in SE 5.9 mph 11.5 mph 56.2% 0.00 in 230 W/m2
16:59 90.3 °F 73.6 °F 29.85 in SE 5.1 mph 11.5 mph 58% 0.00 in 599 W/m2
17:04 90.9 °F 73.5 °F 29.84 in ESE 4.6 mph 10.3 mph 56.8% 0.00 in 577 W/m2
17:09 91.5 °F 74.5 °F 29.84 in SE 4.8 mph 13.8 mph 57.6% 0.00 in 592 W/m2
17:14 91.5 °F 74 °F 29.83 in SE 4.9 mph 13.8 mph 56.8% 0.00 in 552 W/m2
17:19 91.3 °F 73.3 °F 29.84 in SE 3.7 mph 10.3 mph 55.9% 0.00 in 538 W/m2
17:24 91.6 °F 73.8 °F 29.84 in SE 3.2 mph 8.1 mph 56.2% 0.00 in 545 W/m2
17:29 91.5 °F 73.3 °F 29.84 in ESE 2.4 mph 5.8 mph 55.4% 0.00 in 520 W/m2
17:34 90.1 °F 72.7 °F 29.84 in ESE 1.6 mph 5.8 mph 56.7% 0.00 in 151 W/m2
17:39 89.2 °F 73.4 °F 29.85 in SE 0.6 mph 5.8 mph 59.8% 0.00 in 100 W/m2
17:44 88.5 °F 72.7 °F 29.85 in NW 4.8 mph 14.9 mph 59.7% 0.00 in 51 W/m2
17:49 85.8 °F 72.7 °F 29.85 in NW 4.6 mph 14.9 mph 65% 0.00 in 47 W/m2
17:54 83.5 °F 69.4 °F 29.86 in NNW 14 mph 20.7 mph 62.6% 0.00 in 47 W/m2
17:59 82.4 °F 66.4 °F 29.87 in NNW 13 mph 23 mph 58.5% 0.00 in 46 W/m2
18:04 81.9 °F 65.8 °F 29.88 in NW 10.5 mph 16.1 mph 58.2% 0.00 in 54 W/m2
18:09 81.2 °F 68.3 °F 29.88 in NW 14.4 mph 23 mph 65% 0.00 in 63 W/m2
18:14 80.1 °F 68.7 °F 29.87 in NNW 15.5 mph 25.3 mph 68.1% 0.00 in 63 W/m2
18:19 79.4 °F 69 °F 29.87 in NW 16.9 mph 26.4 mph 70.6% 0.00 in 62 W/m2
18:24 78.1 °F 68.9 °F 29.87 in NNW 11.4 mph 26.4 mph 73.5% 0.00 in 60 W/m2
18:29 77.5 °F 67.1 °F 29.86 in NNW 9.8 mph 23 mph 70.4% 0.00 in 56 W/m2
18:34 77.5 °F 66.4 °F 29.86 in NW 9.7 mph 18.4 mph 68.6% 0.00 in 53 W/m2
18:39 77.2 °F 66.5 °F 29.86 in NW 8.7 mph 18.4 mph 69.7% 0.00 in 51 W/m2
18:44 76.4 °F 66.4 °F 29.86 in NNW 7 mph 13.8 mph 71.2% 0.00 in 51 W/m2
18:49 76.4 °F 66.5 °F 29.85 in North 4.3 mph 11.5 mph 71.3% 0.00 in 46 W/m2
18:54 77 °F 66.4 °F 29.85 in North 4 mph 8.1 mph 69.8% 0.00 in 44 W/m2
18:59 77.6 °F 66.6 °F 29.85 in North 3.4 mph 6.9 mph 69% 0.00 in 39 W/m2
19:04 78 °F 66.3 °F 29.87 in ENE 5.9 mph 11.5 mph 67.4% 0.00 in 33 W/m2
19:09 78.1 °F 66.7 °F 29.87 in ENE 4.2 mph 11.5 mph 68% 0.00 in 25 W/m2
19:14 78.1 °F 67.3 °F 29.87 in ENE 4 mph 10.3 mph 69.4% 0.00 in 25 W/m2
19:19 78.1 °F 68.1 °F 29.87 in SSE 4.9 mph 9.2 mph 71.3% 0.00 in 23 W/m2
19:24 78.3 °F 68 °F 29.87 in SE 4.8 mph 9.2 mph 70.9% 0.00 in 18 W/m2
19:29 78.2 °F 68.4 °F 29.87 in ESE 4.1 mph 8.1 mph 72% 0.00 in 16 W/m2
19:34 78.2 °F 68.9 °F 29.87 in ESE 3.5 mph 8.1 mph 73.1% 0.00 in 14 W/m2
19:39 77.9 °F 68.9 °F 29.87 in ESE 3.1 mph 6.9 mph 74% 0.00 in 9 W/m2
19:44 78 °F 69.1 °F 29.87 in SSE 4 mph 6.9 mph 74.1% 0.00 in 7 W/m2
19:49 78.1 °F 68.2 °F 29.87 in South 4.3 mph 6.9 mph 71.7% 0.00 in 7 W/m2
19:54 78.3 °F 67.3 °F 29.87 in SSE 0.7 mph 6.9 mph 69% 0.00 in 7 W/m2
19:59 78.1 °F 67 °F 29.87 in SE 2.8 mph 4.6 mph 68.9% 0.00 in 7 W/m2
20:04 77.9 °F 66.9 °F 29.86 in SSE 2.6 mph 4.6 mph 69% 0.00 in 5 W/m2
20:09 77.9 °F 67 °F 29.86 in SSE 3.6 mph 4.6 mph 69.4% 0.00 in 5 W/m2
20:14 77.6 °F 67 °F 29.86 in SE 2.1 mph 5.8 mph 69.8% 0.00 in 0 W/m2
20:19 77.5 °F 66.7 °F 29.86 in ESE 1.4 mph 5.8 mph 69.3% 0.00 in 0 W/m2
20:24 77.3 °F 66.9 °F 29.86 in ESE 0.7 mph 3.4 mph 70.3% 0.00 in 0 W/m2
20:29 77.2 °F 66.6 °F 29.87 in ESE 0.2 mph 3.4 mph 69.8% 0.00 in 0 W/m2
20:34 77 °F 66.8 °F 29.87 in ESE 1.6 mph 3.4 mph 70.8% 0.00 in 0 W/m2
20:39 76.8 °F 66.6 °F 29.87 in ENE 2.8 mph 4.6 mph 70.7% 0.00 in 0 W/m2
20:44 76.9 °F 67.3 °F 29.88 in ENE 3.7 mph 8.1 mph 72.1% 0.00 in 0 W/m2
20:49 76.9 °F 66.9 °F 29.88 in ENE 0.3 mph 8.1 mph 71.5% 0.00 in 0 W/m2
20:54 76.7 °F 67.1 °F 29.87 in NE 1.5 mph 3.4 mph 72.1% 0.00 in 0 W/m2
20:59 76.6 °F 67.2 °F 29.88 in NE 3.8 mph 5.8 mph 72.7% 0.00 in 0 W/m2
21:04 76.9 °F 67.2 °F 29.89 in ESE 3 mph 5.8 mph 72% 0.00 in 0 W/m2
21:09 77 °F 67.5 °F 29.89 in ESE 2.2 mph 4.6 mph 72.7% 0.00 in 0 W/m2
21:14 76.7 °F 67.8 °F 29.89 in East 0.3 mph 4.6 mph 74% 0.00 in 0 W/m2
21:19 76.3 °F 67.7 °F 29.89 in East 0.4 mph 2.3 mph 74.9% 0.00 in 0 W/m2
21:24 75.8 °F 67.9 °F 29.89 in Calm   2.3 mph 76.4% 0.00 in 0 W/m2
21:29 75.5 °F 67.8 °F 29.89 in Calm   1.1 mph 77.1% 0.00 in 0 W/m2
21:34 75 °F 67.7 °F 29.89 in East 0.4 mph 2.3 mph 78% 0.00 in 0 W/m2
21:39 75.1 °F 67.6 °F 29.89 in East 0.1 mph 2.3 mph 77.4% 0.00 in 0 W/m2
21:44 75.1 °F 67.7 °F 29.90 in Calm   1.1 mph 77.8% 0.00 in 0 W/m2
21:49 74.8 °F 67.5 °F 29.89 in Calm     78% 0.00 in 0 W/m2
21:54 74.5 °F 67.6 °F 29.89 in Calm     79.2% 0.00 in 0 W/m2
21:59 74.5 °F 67.6 °F 29.90 in Calm   1.1 mph 79.1% 0.00 in 0 W/m2
22:04 74.4 °F 67.5 °F 29.89 in Calm   1.1 mph 79% 0.00 in 0 W/m2
22:09 74.4 °F 67.6 °F 29.89 in East 0.4 mph 3.4 mph 79.4% 0.00 in 0 W/m2
22:14 74.6 °F 67.8 °F 29.89 in East 0.1 mph 3.4 mph 79.4% 0.00 in 0 W/m2
22:19 74.4 °F 67.9 °F 29.89 in East 0.3 mph 2.3 mph 80% 0.00 in 0 W/m2
22:24 74.4 °F 67.8 °F 29.89 in Calm   2.3 mph 80% 0.00 in 0 W/m2
22:29 74.1 °F 67.8 °F 29.89 in East 0.3 mph 2.3 mph 80.7% 0.00 in 0 W/m2
22:34 74.1 °F 67.9 °F 29.89 in Calm   2.3 mph 81% 0.00 in 0 W/m2
22:39 74.1 °F 68.2 °F 29.88 in East 1.2 mph 3.4 mph 81.6% 0.00 in 0 W/m2
22:44 74.1 °F 68 °F 29.88 in Calm   3.4 mph 81.5% 0.00 in 0 W/m2
22:49 73.8 °F 68.2 °F 29.88 in East 0.5 mph 2.3 mph 82.6% 0.00 in 0 W/m2
22:54 73.6 °F 68.1 °F 29.88 in ESE 1 mph 3.4 mph 83% 0.00 in 0 W/m2
22:59 73.8 °F 68.2 °F 29.88 in SE 0.4 mph 3.4 mph 82.8% 0.00 in 0 W/m2
23:04 73.6 °F 68.2 °F 29.88 in SE 1.1 mph 2.3 mph 83.3% 0.00 in 0 W/m2
23:09 73.6 °F 68.4 °F 29.88 in SSE 1.6 mph 3.4 mph 84% 0.00 in 0 W/m2
23:14 73.9 °F 68.5 °F 29.88 in SSE 1.3 mph 3.4 mph 83.3% 0.00 in 0 W/m2
23:19 74.2 °F 68.7 °F 29.88 in South 1.4 mph 3.4 mph 83% 0.00 in 0 W/m2
23:24 74.5 °F 68.9 °F 29.88 in South 1.5 mph 3.4 mph 82.6% 0.00 in 0 W/m2
23:29 75.1 °F 69 °F 29.88 in South 1 mph 3.4 mph 81.3% 0.00 in 0 W/m2
23:34 75.4 °F 69 °F 29.88 in South 1.7 mph 4.6 mph 80.7% 0.00 in 0 W/m2
23:39 75.5 °F 69 °F 29.88 in South 2 mph 4.6 mph 80.1% 0.00 in 0 W/m2
23:44 75.4 °F 69.1 °F 29.88 in SSW 1.4 mph 3.4 mph 80.8% 0.00 in 0 W/m2
Peotne Weather
Compliments of Weather Underground - 4 mb